sensor_id;sensor_type;location;lat;lon;timestamp;pressure;altitude;pressure_sealevel;temperature;humidity
73240;BME280;61452;40.054;4.110;2023-05-17T00:03:41;101571.53;;;20.18;50.87
73240;BME280;61452;40.054;4.110;2023-05-17T00:08:44;101554.06;;;20.14;51.65
73240;BME280;61452;40.054;4.110;2023-05-17T00:13:46;101557.22;;;20.19;52.22
73240;BME280;61452;40.054;4.110;2023-05-17T00:18:48;101552.91;;;20.18;52.08
73240;BME280;61452;40.054;4.110;2023-05-17T00:23:50;101527.22;;;20.17;52.15
73240;BME280;61452;40.054;4.110;2023-05-17T00:28:52;101517.16;;;20.20;51.58
73240;BME280;61452;40.054;4.110;2023-05-17T00:33:55;101491.97;;;20.13;51.73
73240;BME280;61452;40.054;4.110;2023-05-17T00:38:57;101489.78;;;20.18;51.51
73240;BME280;61452;40.054;4.110;2023-05-17T00:43:59;101476.13;;;20.12;51.80
73240;BME280;61452;40.054;4.110;2023-05-17T00:49:01;101464.38;;;20.14;51.08
73240;BME280;61452;40.054;4.110;2023-05-17T00:54:04;101450.94;;;20.16;51.10
73240;BME280;61452;40.054;4.110;2023-05-17T00:59:07;101467.66;;;20.18;50.99
73240;BME280;61452;40.054;4.110;2023-05-17T01:04:09;101463.28;;;20.17;51.52
73240;BME280;61452;40.054;4.110;2023-05-17T01:09:13;101460.25;;;20.10;51.39
73240;BME280;61452;40.054;4.110;2023-05-17T01:19:56;101451.03;;;20.14;50.67
73240;BME280;61452;40.054;4.110;2023-05-17T01:25:25;101459.88;;;20.15;50.71
73240;BME280;61452;40.054;4.110;2023-05-17T01:30:28;101456.75;;;20.10;50.79
73240;BME280;61452;40.054;4.110;2023-05-17T01:35:33;101434.81;;;20.06;50.13
73240;BME280;61452;40.054;4.110;2023-05-17T01:40:40;101431.91;;;20.09;49.71
73240;BME280;61452;40.054;4.110;2023-05-17T01:45:59;101447.03;;;20.09;49.54
73240;BME280;61452;40.054;4.110;2023-05-17T01:51:08;101439.78;;;20.11;49.89
73240;BME280;61452;40.054;4.110;2023-05-17T01:56:19;101444.28;;;20.10;50.04
73240;BME280;61452;40.054;4.110;2023-05-17T02:01:22;101444.59;;;20.06;50.18
73240;BME280;61452;40.054;4.110;2023-05-17T02:06:25;101436.41;;;20.09;50.22
73240;BME280;61452;40.054;4.110;2023-05-17T02:11:27;101425.16;;;20.05;50.17
73240;BME280;61452;40.054;4.110;2023-05-17T02:16:29;101417.97;;;20.06;51.08
73240;BME280;61452;40.054;4.110;2023-05-17T02:21:31;101425.16;;;20.05;51.00
73240;BME280;61452;40.054;4.110;2023-05-17T02:26:33;101400.44;;;20.03;51.35
73240;BME280;61452;40.054;4.110;2023-05-17T02:31:36;101418.97;;;20.05;50.75
73240;BME280;61452;40.054;4.110;2023-05-17T02:36:38;101422.69;;;20.02;50.22
73240;BME280;61452;40.054;4.110;2023-05-17T02:41:41;101418.44;;;20.00;50.86
73240;BME280;61452;40.054;4.110;2023-05-17T02:46:44;101417.50;;;20.01;50.73
73240;BME280;61452;40.054;4.110;2023-05-17T02:51:46;101400.91;;;19.97;51.03
73240;BME280;61452;40.054;4.110;2023-05-17T02:56:48;101419.56;;;19.97;51.22
73240;BME280;61452;40.054;4.110;2023-05-17T03:01:51;101431.28;;;19.95;51.11
73240;BME280;61452;40.054;4.110;2023-05-17T03:06:53;101425.25;;;19.93;51.05
73240;BME280;61452;40.054;4.110;2023-05-17T03:11:57;101420.50;;;19.96;51.47
73240;BME280;61452;40.054;4.110;2023-05-17T03:17:03;101416.78;;;19.99;50.87
73240;BME280;61452;40.054;4.110;2023-05-17T03:22:08;101423.06;;;19.98;51.21
73240;BME280;61452;40.054;4.110;2023-05-17T03:27:10;101445.69;;;19.92;50.64
73240;BME280;61452;40.054;4.110;2023-05-17T03:32:13;101439.28;;;19.95;49.92
73240;BME280;61452;40.054;4.110;2023-05-17T03:37:16;101442.78;;;19.95;50.87
73240;BME280;61452;40.054;4.110;2023-05-17T03:42:19;101456.84;;;19.97;50.46
73240;BME280;61452;40.054;4.110;2023-05-17T03:47:22;101445.34;;;19.97;50.95
73240;BME280;61452;40.054;4.110;2023-05-17T03:52:25;101447.50;;;19.92;51.60
73240;BME280;61452;40.054;4.110;2023-05-17T03:57:27;101440.59;;;19.89;51.08
73240;BME280;61452;40.054;4.110;2023-05-17T04:02:29;101446.28;;;19.96;50.05
73240;BME280;61452;40.054;4.110;2023-05-17T04:07:32;101451.63;;;19.96;50.66
73240;BME280;61452;40.054;4.110;2023-05-17T04:12:34;101457.06;;;19.94;50.68
73240;BME280;61452;40.054;4.110;2023-05-17T04:17:36;101460.19;;;19.88;50.33
73240;BME280;61452;40.054;4.110;2023-05-17T04:22:39;101472.31;;;19.92;49.47
73240;BME280;61452;40.054;4.110;2023-05-17T04:27:44;101474.84;;;19.94;49.50
73240;BME280;61452;40.054;4.110;2023-05-17T04:32:48;101469.66;;;19.92;50.44
73240;BME280;61452;40.054;4.110;2023-05-17T04:37:51;101488.31;;;19.92;51.03
73240;BME280;61452;40.054;4.110;2023-05-17T04:42:55;101486.72;;;19.90;50.96
73240;BME280;61452;40.054;4.110;2023-05-17T04:47:59;101483.19;;;19.89;50.62
73240;BME280;61452;40.054;4.110;2023-05-17T04:53:03;101468.81;;;19.92;50.84
73240;BME280;61452;40.054;4.110;2023-05-17T04:58:08;101485.84;;;19.89;51.10
73240;BME280;61452;40.054;4.110;2023-05-17T05:03:11;101488.53;;;19.89;50.83
73240;BME280;61452;40.054;4.110;2023-05-17T05:08:14;101486.97;;;19.87;51.31
73240;BME280;61452;40.054;4.110;2023-05-17T05:13:18;101480.66;;;19.88;50.77
73240;BME280;61452;40.054;4.110;2023-05-17T05:18:20;101487.66;;;19.89;51.43
73240;BME280;61452;40.054;4.110;2023-05-17T05:23:24;101501.22;;;19.86;51.23
73240;BME280;61452;40.054;4.110;2023-05-17T05:28:26;101491.91;;;19.80;51.33
73240;BME280;61452;40.054;4.110;2023-05-17T05:33:29;101516.25;;;19.87;51.19
73240;BME280;61452;40.054;4.110;2023-05-17T05:38:33;101543.84;;;19.86;51.56
73240;BME280;61452;40.054;4.110;2023-05-17T05:43:35;101531.69;;;19.82;51.07
73240;BME280;61452;40.054;4.110;2023-05-17T05:48:38;101524.81;;;19.79;50.77
73240;BME280;61452;40.054;4.110;2023-05-17T05:53:43;101541.38;;;19.83;50.72
73240;BME280;61452;40.054;4.110;2023-05-17T05:58:45;101539.47;;;19.85;50.87
73240;BME280;61452;40.054;4.110;2023-05-17T06:03:48;101542.47;;;19.80;51.38
73240;BME280;61452;40.054;4.110;2023-05-17T06:08:50;101550.47;;;19.80;50.72
73240;BME280;61452;40.054;4.110;2023-05-17T06:13:52;101548.66;;;19.81;50.28
73240;BME280;61452;40.054;4.110;2023-05-17T06:18:54;101550.97;;;19.85;50.68
73240;BME280;61452;40.054;4.110;2023-05-17T06:23:57;101561.97;;;19.81;51.67
73240;BME280;61452;40.054;4.110;2023-05-17T06:28:59;101568.25;;;19.79;50.81
73240;BME280;61452;40.054;4.110;2023-05-17T06:34:01;101548.66;;;19.81;49.86
73240;BME280;61452;40.054;4.110;2023-05-17T06:39:03;101569.72;;;19.84;50.07
73240;BME280;61452;40.054;4.110;2023-05-17T06:44:06;101575.03;;;19.84;49.64
73240;BME280;61452;40.054;4.110;2023-05-17T06:49:08;101576.63;;;19.86;49.14
73240;BME280;61452;40.054;4.110;2023-05-17T06:54:10;101588.25;;;19.85;50.06
73240;BME280;61452;40.054;4.110;2023-05-17T06:59:12;101574.09;;;19.85;49.69
73240;BME280;61452;40.054;4.110;2023-05-17T07:04:14;101574.19;;;19.83;50.18
73240;BME280;61452;40.054;4.110;2023-05-17T07:09:20;101587.59;;;19.82;49.90
73240;BME280;61452;40.054;4.110;2023-05-17T07:14:22;101583.13;;;19.82;50.28
73240;BME280;61452;40.054;4.110;2023-05-17T07:19:27;101586.88;;;19.79;50.24
73240;BME280;61452;40.054;4.110;2023-05-17T07:24:29;101598.25;;;19.82;50.84
73240;BME280;61452;40.054;4.110;2023-05-17T07:29:31;101589.19;;;19.84;49.58
73240;BME280;61452;40.054;4.110;2023-05-17T07:34:34;101574.19;;;19.83;50.38
73240;BME280;61452;40.054;4.110;2023-05-17T07:39:37;101587.00;;;19.78;49.51
73240;BME280;61452;40.054;4.110;2023-05-17T07:44:39;101577.09;;;19.80;49.49
73240;BME280;61452;40.054;4.110;2023-05-17T07:49:41;101587.50;;;19.83;49.73
73240;BME280;61452;40.054;4.110;2023-05-17T07:54:44;101590.28;;;19.82;49.65
73240;BME280;61452;40.054;4.110;2023-05-17T07:59:46;101596.59;;;19.81;49.36
73240;BME280;61452;40.054;4.110;2023-05-17T08:04:49;101606.38;;;19.80;49.31
73240;BME280;61452;40.054;4.110;2023-05-17T08:09:51;101619.56;;;19.82;49.29
73240;BME280;61452;40.054;4.110;2023-05-17T08:14:53;101618.94;;;19.78;49.62
73240;BME280;61452;40.054;4.110;2023-05-17T08:19:55;101617.25;;;19.77;48.70
73240;BME280;61452;40.054;4.110;2023-05-17T08:24:57;101618.09;;;19.77;48.46
73240;BME280;61452;40.054;4.110;2023-05-17T08:29:59;101604.03;;;19.75;48.77
73240;BME280;61452;40.054;4.110;2023-05-17T08:35:03;101610.34;;;19.74;48.97
73240;BME280;61452;40.054;4.110;2023-05-17T08:40:05;101612.88;;;19.76;49.23
73240;BME280;61452;40.054;4.110;2023-05-17T08:45:08;101608.66;;;19.73;49.36
73240;BME280;61452;40.054;4.110;2023-05-17T08:50:11;101606.94;;;19.72;48.38
73240;BME280;61452;40.054;4.110;2023-05-17T08:55:13;101593.28;;;19.77;48.43
73240;BME280;61452;40.054;4.110;2023-05-17T09:00:20;101587.94;;;19.77;48.45
73240;BME280;61452;40.054;4.110;2023-05-17T09:05:23;101582.22;;;19.70;49.18
73240;BME280;61452;40.054;4.110;2023-05-17T09:10:26;101575.22;;;19.69;49.24
73240;BME280;61452;40.054;4.110;2023-05-17T09:15:30;101572.53;;;19.69;49.41
73240;BME280;61452;40.054;4.110;2023-05-17T09:20:35;101591.19;;;19.69;49.41
73240;BME280;61452;40.054;4.110;2023-05-17T09:25:37;101587.44;;;19.72;49.52
73240;BME280;61452;40.054;4.110;2023-05-17T09:30:40;101598.94;;;19.72;49.74
73240;BME280;61452;40.054;4.110;2023-05-17T09:35:43;101586.59;;;19.71;49.89
73240;BME280;61452;40.054;4.110;2023-05-17T09:40:46;101589.50;;;19.68;49.92
73240;BME280;61452;40.054;4.110;2023-05-17T09:45:55;101595.78;;;19.67;50.14
73240;BME280;61452;40.054;4.110;2023-05-17T09:50:59;101600.88;;;19.70;50.36
73240;BME280;61452;40.054;4.110;2023-05-17T09:56:04;101596.41;;;19.71;50.23
73240;BME280;61452;40.054;4.110;2023-05-17T10:01:07;101596.19;;;19.74;50.48
73240;BME280;61452;40.054;4.110;2023-05-17T10:06:12;101594.97;;;19.78;49.59
73240;BME280;61452;40.054;4.110;2023-05-17T10:11:36;101616.38;;;19.76;49.48
73240;BME280;61452;40.054;4.110;2023-05-17T10:16:40;101589.75;;;19.76;49.55
73240;BME280;61452;40.054;4.110;2023-05-17T10:21:45;101595.19;;;19.75;49.33
73240;BME280;61452;40.054;4.110;2023-05-17T10:26:51;101594.13;;;19.77;50.32
73240;BME280;61452;40.054;4.110;2023-05-17T10:31:55;101604.69;;;19.79;49.00
73240;BME280;61452;40.054;4.110;2023-05-17T10:37:00;101603.81;;;19.78;49.07
73240;BME280;61452;40.054;4.110;2023-05-17T10:42:06;101602.13;;;19.77;48.59
73240;BME280;61452;40.054;4.110;2023-05-17T10:47:15;101595.19;;;19.75;48.67
73240;BME280;61452;40.054;4.110;2023-05-17T10:52:20;101594.88;;;19.79;48.86
73240;BME280;61452;40.054;4.110;2023-05-17T10:57:35;101588.91;;;19.76;47.88
73240;BME280;61452;40.054;4.110;2023-05-17T11:03:13;101583.59;;;19.76;48.24
73240;BME280;61452;40.054;4.110;2023-05-17T11:08:16;101583.72;;;19.74;48.49
73240;BME280;61452;40.054;4.110;2023-05-17T11:13:24;101594.25;;;19.76;48.60
73240;BME280;61452;40.054;4.110;2023-05-17T11:18:47;101579.88;;;19.78;48.99
73240;BME280;61452;40.054;4.110;2023-05-17T11:23:54;101580.59;;;19.81;49.08
73240;BME280;61452;40.054;4.110;2023-05-17T11:29:01;101574.28;;;19.82;48.65
73240;BME280;61452;40.054;4.110;2023-05-17T11:34:05;101578.56;;;19.84;49.09
73240;BME280;61452;40.054;4.110;2023-05-17T11:39:12;101582.06;;;19.85;48.80
73240;BME280;61452;40.054;4.110;2023-05-17T11:44:27;101595.13;;;19.88;48.79
73240;BME280;61452;40.054;4.110;2023-05-17T11:49:31;101592.38;;;19.89;48.88
73240;BME280;61452;40.054;4.110;2023-05-17T11:54:38;101580.88;;;19.89;48.95
73240;BME280;61452;40.054;4.110;2023-05-17T11:59:41;101589.81;;;19.88;49.60
73240;BME280;61452;40.054;4.110;2023-05-17T12:04:47;101591.31;;;19.92;49.53
73240;BME280;61452;40.054;4.110;2023-05-17T12:09:49;101599.50;;;19.89;48.67
73240;BME280;61452;40.054;4.110;2023-05-17T12:14:51;101589.00;;;19.87;48.33
73240;BME280;61452;40.054;4.110;2023-05-17T12:19:53;101583.53;;;19.89;49.21
73240;BME280;61452;40.054;4.110;2023-05-17T12:24:56;101590.56;;;19.90;50.04
73240;BME280;61452;40.054;4.110;2023-05-17T12:29:58;101596.22;;;19.85;50.18
73240;BME280;61452;40.054;4.110;2023-05-17T12:35:00;101590.56;;;19.90;49.67
73240;BME280;61452;40.054;4.110;2023-05-17T12:40:03;101593.00;;;19.93;49.71
73240;BME280;61452;40.054;4.110;2023-05-17T12:45:06;101591.19;;;19.93;49.91
73240;BME280;61452;40.054;4.110;2023-05-17T12:50:10;101587.16;;;19.88;50.99
73240;BME280;61452;40.054;4.110;2023-05-17T12:55:12;101595.03;;;19.89;50.29
73240;BME280;61452;40.054;4.110;2023-05-17T13:00:15;101587.53;;;19.94;50.21
73240;BME280;61452;40.054;4.110;2023-05-17T13:05:18;101593.72;;;19.95;50.13
73240;BME280;61452;40.054;4.110;2023-05-17T13:10:25;101589.34;;;19.94;50.59
73240;BME280;61452;40.054;4.110;2023-05-17T13:15:29;101574.69;;;19.88;51.65
73240;BME280;61452;40.054;4.110;2023-05-17T13:20:31;101583.31;;;19.92;50.20
73240;BME280;61452;40.054;4.110;2023-05-17T13:25:34;101587.69;;;19.93;50.33
73240;BME280;61452;40.054;4.110;2023-05-17T13:30:37;101574.94;;;19.85;50.09
73240;BME280;61452;40.054;4.110;2023-05-17T13:35:40;101584.88;;;19.94;50.71
73240;BME280;61452;40.054;4.110;2023-05-17T13:40:42;101581.38;;;19.94;50.27
73240;BME280;61452;40.054;4.110;2023-05-17T13:45:45;101573.38;;;19.94;50.19
73240;BME280;61452;40.054;4.110;2023-05-17T13:50:47;101576.88;;;19.94;50.67
73240;BME280;61452;40.054;4.110;2023-05-17T13:55:50;101578.69;;;19.94;50.20
73240;BME280;61452;40.054;4.110;2023-05-17T14:00:52;101572.41;;;19.95;50.00
73240;BME280;61452;40.054;4.110;2023-05-17T14:05:54;101577.75;;;19.95;49.46
73240;BME280;61452;40.054;4.110;2023-05-17T14:10:57;101579.44;;;19.96;50.33
73240;BME280;61452;40.054;4.110;2023-05-17T14:15:59;101569.66;;;19.96;50.25
73240;BME280;61452;40.054;4.110;2023-05-17T14:21:01;101575.06;;;19.95;50.21
73240;BME280;61452;40.054;4.110;2023-05-17T14:26:04;101582.22;;;19.94;50.09
73240;BME280;61452;40.054;4.110;2023-05-17T14:31:08;101588.53;;;19.93;49.52
73240;BME280;61452;40.054;4.110;2023-05-17T14:36:11;101588.38;;;19.95;50.03
73240;BME280;61452;40.054;4.110;2023-05-17T14:41:15;101578.69;;;19.94;49.52
73240;BME280;61452;40.054;4.110;2023-05-17T14:46:19;101578.09;;;19.90;49.16
73240;BME280;61452;40.054;4.110;2023-05-17T14:51:21;101575.44;;;19.90;49.30
73240;BME280;61452;40.054;4.110;2023-05-17T14:56:23;101566.47;;;19.91;49.90
73240;BME280;61452;40.054;4.110;2023-05-17T15:01:26;101578.84;;;19.92;49.40
73240;BME280;61452;40.054;4.110;2023-05-17T15:06:28;101577.25;;;19.90;49.44
73240;BME280;61452;40.054;4.110;2023-05-17T15:11:30;101565.75;;;19.89;49.68
73240;BME280;61452;40.054;4.110;2023-05-17T15:16:33;101570.00;;;19.92;49.74
73240;BME280;61452;40.054;4.110;2023-05-17T15:21:35;101573.63;;;19.91;50.48
73240;BME280;61452;40.054;4.110;2023-05-17T15:26:37;101568.19;;;19.92;48.99
73240;BME280;61452;40.054;4.110;2023-05-17T15:31:40;101571.06;;;19.89;48.35
73240;BME280;61452;40.054;4.110;2023-05-17T15:36:42;101569.16;;;19.91;48.11
73240;BME280;61452;40.054;4.110;2023-05-17T15:41:44;101570.59;;;19.95;49.50
73240;BME280;61452;40.054;4.110;2023-05-17T15:46:46;101568.91;;;19.94;49.50
73240;BME280;61452;40.054;4.110;2023-05-17T15:51:48;101565.16;;;19.97;49.37
73240;BME280;61452;40.054;4.110;2023-05-17T15:56:50;101565.38;;;19.94;48.80
73240;BME280;61452;40.054;4.110;2023-05-17T16:01:52;101571.44;;;19.96;48.87
73240;BME280;61452;40.054;4.110;2023-05-17T16:06:55;101566.97;;;19.96;48.79
73240;BME280;61452;40.054;4.110;2023-05-17T16:11:57;101567.72;;;19.98;49.44
73240;BME280;61452;40.054;4.110;2023-05-17T16:16:59;101577.41;;;19.99;49.61
73240;BME280;61452;40.054;4.110;2023-05-17T16:22:01;101566.63;;;20.01;49.76
73240;BME280;61452;40.054;4.110;2023-05-17T16:27:04;101569.28;;;20.01;50.34
73240;BME280;61452;40.054;4.110;2023-05-17T16:32:08;101563.09;;;20.00;50.50
73240;BME280;61452;40.054;4.110;2023-05-17T16:37:11;101568.56;;;19.99;50.73
73240;BME280;61452;40.054;4.110;2023-05-17T16:42:13;101567.72;;;19.98;51.04
73240;BME280;61452;40.054;4.110;2023-05-17T16:47:16;101561.53;;;19.98;51.16
73240;BME280;61452;40.054;4.110;2023-05-17T16:52:19;101559.00;;;19.96;51.15
73240;BME280;61452;40.054;4.110;2023-05-17T16:57:21;101541.41;;;19.94;51.21
73240;BME280;61452;40.054;4.110;2023-05-17T17:02:23;101544.94;;;19.94;51.61
73240;BME280;61452;40.054;4.110;2023-05-17T17:07:25;101532.59;;;19.93;51.60
73240;BME280;61452;40.054;4.110;2023-05-17T17:12:27;101525.44;;;19.94;51.57
73240;BME280;61452;40.054;4.110;2023-05-17T17:17:29;101537.09;;;19.93;51.63
73240;BME280;61452;40.054;4.110;2023-05-17T17:22:32;101536.09;;;19.94;51.78
73240;BME280;61452;40.054;4.110;2023-05-17T17:27:34;101538.91;;;19.92;51.81
73240;BME280;61452;40.054;4.110;2023-05-17T17:32:36;101541.41;;;19.94;51.89
73240;BME280;61452;40.054;4.110;2023-05-17T17:37:38;101535.28;;;19.93;51.85
73240;BME280;61452;40.054;4.110;2023-05-17T17:42:40;101531.63;;;19.94;52.09
73240;BME280;61452;40.054;4.110;2023-05-17T17:47:42;101526.28;;;19.94;52.32
73240;BME280;61452;40.054;4.110;2023-05-17T17:52:45;101524.63;;;19.93;52.25
73240;BME280;61452;40.054;4.110;2023-05-17T17:57:49;101531.75;;;19.93;52.36
73240;BME280;61452;40.054;4.110;2023-05-17T18:02:51;101535.97;;;19.95;52.43
73240;BME280;61452;40.054;4.110;2023-05-17T18:07:53;101534.91;;;19.98;52.45
73240;BME280;61452;40.054;4.110;2023-05-17T18:12:57;101529.69;;;19.96;52.45
73240;BME280;61452;40.054;4.110;2023-05-17T18:17:59;101532.25;;;19.98;52.19
73240;BME280;61452;40.054;4.110;2023-05-17T18:23:01;101538.28;;;20.00;52.22
73240;BME280;61452;40.054;4.110;2023-05-17T18:28:03;101530.56;;;19.97;52.22
73240;BME280;61452;40.054;4.110;2023-05-17T18:33:09;101551.50;;;20.01;52.33
73240;BME280;61452;40.054;4.110;2023-05-17T18:38:11;101558.78;;;19.99;52.42
73240;BME280;61452;40.054;4.110;2023-05-17T18:43:13;101553.19;;;20.02;52.31
73240;BME280;61452;40.054;4.110;2023-05-17T18:48:15;101534.44;;;20.04;52.35
73240;BME280;61452;40.054;4.110;2023-05-17T18:53:18;101547.66;;;20.05;52.31
73240;BME280;61452;40.054;4.110;2023-05-17T18:58:20;101544.84;;;20.07;52.31
73240;BME280;61452;40.054;4.110;2023-05-17T19:03:22;101543.50;;;20.01;52.77
73240;BME280;61452;40.054;4.110;2023-05-17T19:08:24;101545.31;;;20.01;52.93
73240;BME280;61452;40.054;4.110;2023-05-17T19:13:27;101537.22;;;20.02;52.79
73240;BME280;61452;40.054;4.110;2023-05-17T19:18:29;101525.97;;;19.99;52.41
73240;BME280;61452;40.054;4.110;2023-05-17T19:23:31;101544.34;;;20.02;52.95
73240;BME280;61452;40.054;4.110;2023-05-17T19:28:34;101547.28;;;19.99;53.44
73240;BME280;61452;40.054;4.110;2023-05-17T19:33:36;101551.59;;;20.00;53.18
73240;BME280;61452;40.054;4.110;2023-05-17T19:38:38;101562.41;;;19.98;53.38
73240;BME280;61452;40.054;4.110;2023-05-17T19:43:41;101561.53;;;19.98;53.04
73240;BME280;61452;40.054;4.110;2023-05-17T19:48:43;101560.44;;;20.00;53.50
73240;BME280;61452;40.054;4.110;2023-05-17T19:53:45;101570.13;;;20.01;52.93
73240;BME280;61452;40.054;4.110;2023-05-17T19:58:54;101569.44;;;19.99;53.67
73240;BME280;61452;40.054;4.110;2023-05-17T20:03:56;101577.28;;;20.01;53.88
73240;BME280;61452;40.054;4.110;2023-05-17T20:08:59;101586.88;;;20.03;53.80
73240;BME280;61452;40.054;4.110;2023-05-17T20:14:01;101588.69;;;20.03;53.90
73240;BME280;61452;40.054;4.110;2023-05-17T20:19:03;101592.66;;;19.97;54.36
73240;BME280;61452;40.054;4.110;2023-05-17T20:24:06;101600.53;;;19.99;54.27
73240;BME280;61452;40.054;4.110;2023-05-17T20:29:08;101609.47;;;19.98;54.21
73240;BME280;61452;40.054;4.110;2023-05-17T20:34:10;101619.03;;;20.00;54.18
73240;BME280;61452;40.054;4.110;2023-05-17T20:39:12;101609.38;;;19.99;54.35
73240;BME280;61452;40.054;4.110;2023-05-17T20:44:16;101620.75;;;20.01;54.55
73240;BME280;61452;40.054;4.110;2023-05-17T20:49:19;101621.00;;;19.98;54.57
73240;BME280;61452;40.054;4.110;2023-05-17T20:54:22;101624.38;;;20.00;54.65
73240;BME280;61452;40.054;4.110;2023-05-17T20:59:26;101624.50;;;19.99;54.88
73240;BME280;61452;40.054;4.110;2023-05-17T21:04:28;101633.34;;;19.99;55.43
73240;BME280;61452;40.054;4.110;2023-05-17T21:09:30;101642.28;;;19.98;54.63
73240;BME280;61452;40.054;4.110;2023-05-17T21:14:33;101636.00;;;19.99;54.34
73240;BME280;61452;40.054;4.110;2023-05-17T21:19:35;101648.47;;;19.99;54.03
73240;BME280;61452;40.054;4.110;2023-05-17T21:24:37;101647.63;;;19.98;54.07
73240;BME280;61452;40.054;4.110;2023-05-17T21:29:40;101638.53;;;20.01;54.30
73240;BME280;61452;40.054;4.110;2023-05-17T21:34:42;101644.81;;;20.00;53.67
73240;BME280;61452;40.054;4.110;2023-05-17T21:39:45;101636.00;;;19.99;52.96
73240;BME280;61452;40.054;4.110;2023-05-17T21:44:47;101646.75;;;19.98;53.80
73240;BME280;61452;40.054;4.110;2023-05-17T21:49:49;101653.78;;;19.99;54.30
73240;BME280;61452;40.054;4.110;2023-05-17T21:54:52;101663.59;;;19.98;54.35
73240;BME280;61452;40.054;4.110;2023-05-17T21:59:54;101660.78;;;20.00;53.98
73240;BME280;61452;40.054;4.110;2023-05-17T22:04:56;101668.06;;;19.98;54.21
73240;BME280;61452;40.054;4.110;2023-05-17T22:09:58;101657.41;;;19.98;54.45
73240;BME280;61452;40.054;4.110;2023-05-17T22:15:01;101656.66;;;19.96;54.34
73240;BME280;61452;40.054;4.110;2023-05-17T22:20:03;101660.09;;;19.98;53.94
73240;BME280;61452;40.054;4.110;2023-05-17T22:25:07;101650.38;;;19.97;54.02
73240;BME280;61452;40.054;4.110;2023-05-17T22:30:09;101643.25;;;19.97;54.46
73240;BME280;61452;40.054;4.110;2023-05-17T22:35:11;101637.19;;;19.95;54.52
73240;BME280;61452;40.054;4.110;2023-05-17T22:40:14;101624.72;;;19.96;54.35
73240;BME280;61452;40.054;4.110;2023-05-17T22:45:16;101633.44;;;19.98;54.29
73240;BME280;61452;40.054;4.110;2023-05-17T22:50:19;101627.28;;;19.97;54.71
73240;BME280;61452;40.054;4.110;2023-05-17T22:55:21;101628.22;;;19.96;54.38
73240;BME280;61452;40.054;4.110;2023-05-17T23:00:24;101622.78;;;19.98;54.12
73240;BME280;61452;40.054;4.110;2023-05-17T23:05:27;101628.03;;;19.99;54.00
73240;BME280;61452;40.054;4.110;2023-05-17T23:10:29;101621.94;;;19.97;54.07
73240;BME280;61452;40.054;4.110;2023-05-17T23:15:31;101617.56;;;19.96;54.14
73240;BME280;61452;40.054;4.110;2023-05-17T23:20:35;101609.09;;;19.91;54.18
73240;BME280;61452;40.054;4.110;2023-05-17T23:25:37;101622.06;;;19.96;53.83
73240;BME280;61452;40.054;4.110;2023-05-17T23:30:39;101601.59;;;19.96;53.96
73240;BME280;61452;40.054;4.110;2023-05-17T23:35:41;101601.38;;;19.99;53.63
73240;BME280;61452;40.054;4.110;2023-05-17T23:40:43;101605.00;;;19.98;54.23
73240;BME280;61452;40.054;4.110;2023-05-17T23:45:46;101601.50;;;19.98;53.79
73240;BME280;61452;40.054;4.110;2023-05-17T23:50:48;101602.56;;;19.95;53.88
73240;BME280;61452;40.054;4.110;2023-05-17T23:55:50;101595.66;;;19.93;54.42
